sensor_id;sensor_type;location;lat;lon;timestamp;temperature;humidity
65478;SHT31;53678;39.642;22.430;2023-04-15T00:01:36;15.36;45.97
65478;SHT31;53678;39.642;22.430;2023-04-15T00:04:02;15.27;46.36
65478;SHT31;53678;39.642;22.430;2023-04-15T00:06:28;15.31;46.24
65478;SHT31;53678;39.642;22.430;2023-04-15T00:08:53;15.33;45.96
65478;SHT31;53678;39.642;22.430;2023-04-15T00:11:20;15.40;45.88
65478;SHT31;53678;39.642;22.430;2023-04-15T00:13:45;15.44;45.54
65478;SHT31;53678;39.642;22.430;2023-04-15T00:16:12;15.51;45.57
65478;SHT31;53678;39.642;22.430;2023-04-15T00:18:37;15.44;45.56
65478;SHT31;53678;39.642;22.430;2023-04-15T00:21:04;15.55;45.70
65478;SHT31;53678;39.642;22.430;2023-04-15T00:23:30;15.40;46.04
65478;SHT31;53678;39.642;22.430;2023-04-15T00:25:56;15.44;46.18
65478;SHT31;53678;39.642;22.430;2023-04-15T00:28:22;15.47;46.45
65478;SHT31;53678;39.642;22.430;2023-04-15T00:30:49;15.31;46.88
65478;SHT31;53678;39.642;22.430;2023-04-15T00:33:15;15.23;47.20
65478;SHT31;53678;39.642;22.430;2023-04-15T00:35:44;15.11;47.51
65478;SHT31;53678;39.642;22.430;2023-04-15T00:38:09;14.98;47.70
65478;SHT31;53678;39.642;22.430;2023-04-15T00:40:36;15.03;47.61
65478;SHT31;53678;39.642;22.430;2023-04-15T00:43:04;14.99;47.94
65478;SHT31;53678;39.642;22.430;2023-04-15T00:45:30;14.98;47.96
65478;SHT31;53678;39.642;22.430;2023-04-15T00:47:56;15.06;48.09
65478;SHT31;53678;39.642;22.430;2023-04-15T00:50:22;14.95;48.46
65478;SHT31;53678;39.642;22.430;2023-04-15T00:52:48;15.00;48.43
65478;SHT31;53678;39.642;22.430;2023-04-15T00:55:14;15.00;48.44
65478;SHT31;53678;39.642;22.430;2023-04-15T00:57:40;14.95;48.65
65478;SHT31;53678;39.642;22.430;2023-04-15T01:00:06;14.85;49.23
65478;SHT31;53678;39.642;22.430;2023-04-15T01:02:36;14.80;49.57
65478;SHT31;53678;39.642;22.430;2023-04-15T01:05:03;14.82;49.52
65478;SHT31;53678;39.642;22.430;2023-04-15T01:07:30;14.78;49.45
65478;SHT31;53678;39.642;22.430;2023-04-15T01:09:56;14.76;49.62
65478;SHT31;53678;39.642;22.430;2023-04-15T01:12:25;14.68;50.02
65478;SHT31;53678;39.642;22.430;2023-04-15T01:14:53;14.62;50.33
65478;SHT31;53678;39.642;22.430;2023-04-15T01:17:21;14.68;50.57
65478;SHT31;53678;39.642;22.430;2023-04-15T01:19:47;14.75;50.37
65478;SHT31;53678;39.642;22.430;2023-04-15T01:22:15;14.79;50.40
65478;SHT31;53678;39.642;22.430;2023-04-15T01:24:45;14.86;50.31
65478;SHT31;53678;39.642;22.430;2023-04-15T01:27:15;14.92;50.46
65478;SHT31;53678;39.642;22.430;2023-04-15T01:29:41;14.93;50.50
65478;SHT31;53678;39.642;22.430;2023-04-15T01:32:07;14.90;50.40
65478;SHT31;53678;39.642;22.430;2023-04-15T01:34:33;14.76;50.89
65478;SHT31;53678;39.642;22.430;2023-04-15T01:36:59;14.55;51.36
65478;SHT31;53678;39.642;22.430;2023-04-15T01:39:26;14.59;51.60
65478;SHT31;53678;39.642;22.430;2023-04-15T01:41:55;14.52;51.70
65478;SHT31;53678;39.642;22.430;2023-04-15T01:44:23;14.51;51.63
65478;SHT31;53678;39.642;22.430;2023-04-15T01:46:48;14.46;51.78
65478;SHT31;53678;39.642;22.430;2023-04-15T01:49:15;14.49;51.86
65478;SHT31;53678;39.642;22.430;2023-04-15T01:51:41;14.45;51.55
65478;SHT31;53678;39.642;22.430;2023-04-15T01:54:07;14.35;51.79
65478;SHT31;53678;39.642;22.430;2023-04-15T01:56:32;14.31;52.21
65478;SHT31;53678;39.642;22.430;2023-04-15T01:58:59;14.34;52.00
65478;SHT31;53678;39.642;22.430;2023-04-15T02:01:26;14.30;51.98
65478;SHT31;53678;39.642;22.430;2023-04-15T02:03:51;14.46;51.53
65478;SHT31;53678;39.642;22.430;2023-04-15T02:06:17;14.38;51.82
65478;SHT31;53678;39.642;22.430;2023-04-15T02:08:43;14.52;51.58
65478;SHT31;53678;39.642;22.430;2023-04-15T02:11:09;14.41;51.74
65478;SHT31;53678;39.642;22.430;2023-04-15T02:13:35;14.30;52.52
65478;SHT31;53678;39.642;22.430;2023-04-15T02:16:01;14.31;52.49
65478;SHT31;53678;39.642;22.430;2023-04-15T02:18:27;14.20;52.61
65478;SHT31;53678;39.642;22.430;2023-04-15T02:20:53;13.51;54.83
65478;SHT31;53678;39.642;22.430;2023-04-15T02:23:23;13.26;56.14
65478;SHT31;53678;39.642;22.430;2023-04-15T02:25:49;13.34;56.22
65478;SHT31;53678;39.642;22.430;2023-04-15T02:28:15;13.25;56.62
65478;SHT31;53678;39.642;22.430;2023-04-15T02:30:47;12.98;57.56
65478;SHT31;53678;39.642;22.430;2023-04-15T02:33:13;12.87;58.14
65478;SHT31;53678;39.642;22.430;2023-04-15T02:35:38;12.64;59.06
65478;SHT31;53678;39.642;22.430;2023-04-15T02:38:08;12.52;59.32
65478;SHT31;53678;39.642;22.430;2023-04-15T02:40:34;12.30;60.06
65478;SHT31;53678;39.642;22.430;2023-04-15T02:43:01;12.21;60.44
65478;SHT31;53678;39.642;22.430;2023-04-15T02:45:27;12.33;60.45
65478;SHT31;53678;39.642;22.430;2023-04-15T02:47:53;12.50;59.68
65478;SHT31;53678;39.642;22.430;2023-04-15T02:50:19;12.66;59.41
65478;SHT31;53678;39.642;22.430;2023-04-15T02:52:46;12.73;58.94
65478;SHT31;53678;39.642;22.430;2023-04-15T02:55:12;12.83;58.54
65478;SHT31;53678;39.642;22.430;2023-04-15T02:57:38;12.91;58.08
65478;SHT31;53678;39.642;22.430;2023-04-15T03:00:08;13.07;57.45
65478;SHT31;53678;39.642;22.430;2023-04-15T03:02:39;13.25;56.65
65478;SHT31;53678;39.642;22.430;2023-04-15T03:05:05;13.11;57.35
65478;SHT31;53678;39.642;22.430;2023-04-15T03:07:32;13.19;57.47
65478;SHT31;53678;39.642;22.430;2023-04-15T03:09:59;13.12;57.30
65478;SHT31;53678;39.642;22.430;2023-04-15T03:12:25;13.04;57.75
65478;SHT31;53678;39.642;22.430;2023-04-15T03:14:54;12.61;58.93
65478;SHT31;53678;39.642;22.430;2023-04-15T03:17:26;11.56;62.91
65478;SHT31;53678;39.642;22.430;2023-04-15T03:19:52;11.60;63.01
65478;SHT31;53678;39.642;22.430;2023-04-15T03:22:18;11.84;62.13
65478;SHT31;53678;39.642;22.430;2023-04-15T03:24:44;12.09;61.71
65478;SHT31;53678;39.642;22.430;2023-04-15T03:27:11;12.30;59.87
65478;SHT31;53678;39.642;22.430;2023-04-15T03:29:39;12.30;59.12
65478;SHT31;53678;39.642;22.430;2023-04-15T03:32:06;12.40;59.16
65478;SHT31;53678;39.642;22.430;2023-04-15T03:34:33;12.79;58.32
65478;SHT31;53678;39.642;22.430;2023-04-15T03:36:59;12.81;57.82
65478;SHT31;53678;39.642;22.430;2023-04-15T03:39:25;12.81;57.75
65478;SHT31;53678;39.642;22.430;2023-04-15T03:41:50;12.83;57.48
65478;SHT31;53678;39.642;22.430;2023-04-15T03:44:17;12.81;58.04
65478;SHT31;53678;39.642;22.430;2023-04-15T03:46:43;12.80;57.89
65478;SHT31;53678;39.642;22.430;2023-04-15T03:49:09;12.46;59.48
65478;SHT31;53678;39.642;22.430;2023-04-15T03:51:35;11.92;61.00
65478;SHT31;53678;39.642;22.430;2023-04-15T03:54:01;11.64;61.98
65478;SHT31;53678;39.642;22.430;2023-04-15T03:56:27;11.81;61.91
65478;SHT31;53678;39.642;22.430;2023-04-15T03:58:53;11.98;61.37
65478;SHT31;53678;39.642;22.430;2023-04-15T04:01:20;11.81;61.57
65478;SHT31;53678;39.642;22.430;2023-04-15T04:03:46;10.61;66.04
65478;SHT31;53678;39.642;22.430;2023-04-15T04:06:12;10.67;65.71
65478;SHT31;53678;39.642;22.430;2023-04-15T04:08:39;10.83;65.96
65478;SHT31;53678;39.642;22.430;2023-04-15T04:11:05;11.24;64.93
65478;SHT31;53678;39.642;22.430;2023-04-15T04:13:31;11.82;62.91
65478;SHT31;53678;39.642;22.430;2023-04-15T04:15:56;12.46;61.29
65478;SHT31;53678;39.642;22.430;2023-04-15T04:18:22;12.74;61.14
65478;SHT31;53678;39.642;22.430;2023-04-15T04:20:48;13.04;60.78
65478;SHT31;53678;39.642;22.430;2023-04-15T04:23:14;13.39;58.82
65478;SHT31;53678;39.642;22.430;2023-04-15T04:25:41;13.99;56.42
65478;SHT31;53678;39.642;22.430;2023-04-15T04:28:08;14.28;54.79
65478;SHT31;53678;39.642;22.430;2023-04-15T04:30:34;14.78;53.84
65478;SHT31;53678;39.642;22.430;2023-04-15T04:33:00;15.47;52.02
65478;SHT31;53678;39.642;22.430;2023-04-15T04:35:26;16.13;50.87
65478;SHT31;53678;39.642;22.430;2023-04-15T04:37:52;13.77;58.88
65478;SHT31;53678;39.642;22.430;2023-04-15T04:40:18;14.73;55.54
65478;SHT31;53678;39.642;22.430;2023-04-15T04:42:43;13.58;57.44
65478;SHT31;53678;39.642;22.430;2023-04-15T04:45:10;13.97;57.36
65478;SHT31;53678;39.642;22.430;2023-04-15T04:47:35;15.85;53.39
65478;SHT31;53678;39.642;22.430;2023-04-15T04:50:01;15.89;52.60
65478;SHT31;53678;39.642;22.430;2023-04-15T04:52:28;15.78;53.28
65478;SHT31;53678;39.642;22.430;2023-04-15T04:54:53;15.44;54.76
65478;SHT31;53678;39.642;22.430;2023-04-15T04:57:20;16.92;50.57
65478;SHT31;53678;39.642;22.430;2023-04-15T04:59:46;18.22;48.23
65478;SHT31;53678;39.642;22.430;2023-04-15T05:02:12;18.90;45.63
65478;SHT31;53678;39.642;22.430;2023-04-15T05:04:38;14.52;56.58
65478;SHT31;53678;39.642;22.430;2023-04-15T05:07:04;14.48;57.86
65478;SHT31;53678;39.642;22.430;2023-04-15T05:09:29;16.75;52.51
65478;SHT31;53678;39.642;22.430;2023-04-15T05:11:57;17.77;49.90
65478;SHT31;53678;39.642;22.430;2023-04-15T05:14:23;17.01;51.19
65478;SHT31;53678;39.642;22.430;2023-04-15T05:16:50;18.11;49.66
65478;SHT31;53678;39.642;22.430;2023-04-15T05:19:15;18.31;48.71
65478;SHT31;53678;39.642;22.430;2023-04-15T05:21:41;18.20;49.09
65478;SHT31;53678;39.642;22.430;2023-04-15T05:24:10;19.35;47.86
65478;SHT31;53678;39.642;22.430;2023-04-15T05:26:37;20.57;45.94
65478;SHT31;53678;39.642;22.430;2023-04-15T05:29:03;21.67;42.76
65478;SHT31;53678;39.642;22.430;2023-04-15T05:31:29;22.07;42.37
65478;SHT31;53678;39.642;22.430;2023-04-15T05:33:54;22.53;42.14
65478;SHT31;53678;39.642;22.430;2023-04-15T05:36:22;21.13;44.30
65478;SHT31;53678;39.642;22.430;2023-04-15T05:38:48;19.44;48.21
65478;SHT31;53678;39.642;22.430;2023-04-15T05:41:14;21.19;44.60
65478;SHT31;53678;39.642;22.430;2023-04-15T05:43:41;20.15;44.99
65478;SHT31;53678;39.642;22.430;2023-04-15T05:46:09;21.28;45.37
65478;SHT31;53678;39.642;22.430;2023-04-15T05:48:36;21.25;45.74
65478;SHT31;53678;39.642;22.430;2023-04-15T05:51:02;21.81;44.48
65478;SHT31;53678;39.642;22.430;2023-04-15T05:53:28;21.66;43.90
65478;SHT31;53678;39.642;22.430;2023-04-15T05:55:54;21.49;45.22
65478;SHT31;53678;39.642;22.430;2023-04-15T05:58:20;21.35;45.92
65478;SHT31;53678;39.642;22.430;2023-04-15T06:00:46;19.55;49.46
65478;SHT31;53678;39.642;22.430;2023-04-15T06:03:11;18.05;51.75
65478;SHT31;53678;39.642;22.430;2023-04-15T06:05:37;19.27;49.47
65478;SHT31;53678;39.642;22.430;2023-04-15T06:08:03;18.72;49.78
65478;SHT31;53678;39.642;22.430;2023-04-15T06:10:29;18.41;51.79
65478;SHT31;53678;39.642;22.430;2023-04-15T06:12:55;18.07;52.56
65478;SHT31;53678;39.642;22.430;2023-04-15T06:15:22;18.21;51.94
65478;SHT31;53678;39.642;22.430;2023-04-15T06:17:48;17.98;51.82
65478;SHT31;53678;39.642;22.430;2023-04-15T06:20:14;17.94;52.14
65478;SHT31;53678;39.642;22.430;2023-04-15T06:22:42;18.22;52.38
65478;SHT31;53678;39.642;22.430;2023-04-15T06:25:08;18.07;52.31
65478;SHT31;53678;39.642;22.430;2023-04-15T06:27:34;18.21;51.65
65478;SHT31;53678;39.642;22.430;2023-04-15T06:29:59;17.56;52.71
65478;SHT31;53678;39.642;22.430;2023-04-15T06:32:26;18.58;51.64
65478;SHT31;53678;39.642;22.430;2023-04-15T06:34:52;19.16;49.36
65478;SHT31;53678;39.642;22.430;2023-04-15T06:37:18;19.28;48.78
65478;SHT31;53678;39.642;22.430;2023-04-15T06:39:43;19.86;48.18
65478;SHT31;53678;39.642;22.430;2023-04-15T06:42:10;20.26;48.23
65478;SHT31;53678;39.642;22.430;2023-04-15T06:44:36;20.41;48.24
65478;SHT31;53678;39.642;22.430;2023-04-15T06:47:02;20.71;45.44
65478;SHT31;53678;39.642;22.430;2023-04-15T06:49:28;19.92;47.51
65478;SHT31;53678;39.642;22.430;2023-04-15T06:51:54;20.37;44.81
65478;SHT31;53678;39.642;22.430;2023-04-15T06:54:20;20.77;43.11
65478;SHT31;53678;39.642;22.430;2023-04-15T06:56:46;21.26;41.94
65478;SHT31;53678;39.642;22.430;2023-04-15T06:59:12;21.42;39.60
65478;SHT31;53678;39.642;22.430;2023-04-15T07:01:41;21.59;40.84
65478;SHT31;53678;39.642;22.430;2023-04-15T07:04:07;21.73;40.10
65478;SHT31;53678;39.642;22.430;2023-04-15T07:06:33;21.98;39.66
65478;SHT31;53678;39.642;22.430;2023-04-15T07:09:00;22.02;39.65
65478;SHT31;53678;39.642;22.430;2023-04-15T07:11:27;22.00;40.59
65478;SHT31;53678;39.642;22.430;2023-04-15T07:13:56;21.46;37.95
65478;SHT31;53678;39.642;22.430;2023-04-15T07:16:22;21.23;39.55
65478;SHT31;53678;39.642;22.430;2023-04-15T07:18:49;21.45;40.18
65478;SHT31;53678;39.642;22.430;2023-04-15T07:21:16;21.63;39.73
65478;SHT31;53678;39.642;22.430;2023-04-15T07:23:43;21.94;38.00
65478;SHT31;53678;39.642;22.430;2023-04-15T07:26:09;22.15;38.61
65478;SHT31;53678;39.642;22.430;2023-04-15T07:28:35;21.86;38.41
65478;SHT31;53678;39.642;22.430;2023-04-15T07:31:03;21.53;39.54
65478;SHT31;53678;39.642;22.430;2023-04-15T07:33:30;20.65;42.95
65478;SHT31;53678;39.642;22.430;2023-04-15T07:35:56;21.62;40.36
65478;SHT31;53678;39.642;22.430;2023-04-15T07:38:21;21.86;39.74
65478;SHT31;53678;39.642;22.430;2023-04-15T07:40:49;22.20;38.98
65478;SHT31;53678;39.642;22.430;2023-04-15T07:43:15;22.44;39.50
65478;SHT31;53678;39.642;22.430;2023-04-15T07:45:42;22.72;38.60
65478;SHT31;53678;39.642;22.430;2023-04-15T07:48:08;22.58;38.43
65478;SHT31;53678;39.642;22.430;2023-04-15T07:50:35;21.98;38.98
65478;SHT31;53678;39.642;22.430;2023-04-15T07:53:02;22.37;38.34
65478;SHT31;53678;39.642;22.430;2023-04-15T07:55:28;21.74;39.18
65478;SHT31;53678;39.642;22.430;2023-04-15T07:57:56;21.39;40.08
65478;SHT31;53678;39.642;22.430;2023-04-15T08:00:23;21.41;39.54
65478;SHT31;53678;39.642;22.430;2023-04-15T08:02:51;21.29;40.35
65478;SHT31;53678;39.642;22.430;2023-04-15T08:05:18;21.29;39.45
65478;SHT31;53678;39.642;22.430;2023-04-15T08:07:44;20.84;40.72
65478;SHT31;53678;39.642;22.430;2023-04-15T08:10:11;20.92;40.39
65478;SHT31;53678;39.642;22.430;2023-04-15T08:12:37;20.67;40.29
65478;SHT31;53678;39.642;22.430;2023-04-15T08:15:03;20.91;40.39
65478;SHT31;53678;39.642;22.430;2023-04-15T08:17:30;20.73;40.52
65478;SHT31;53678;39.642;22.430;2023-04-15T08:19:56;21.09;40.89
65478;SHT31;53678;39.642;22.430;2023-04-15T08:22:25;21.74;42.26
65478;SHT31;53678;39.642;22.430;2023-04-15T08:24:52;22.02;39.40
65478;SHT31;53678;39.642;22.430;2023-04-15T08:27:18;22.11;39.13
65478;SHT31;53678;39.642;22.430;2023-04-15T08:29:45;22.32;39.10
65478;SHT31;53678;39.642;22.430;2023-04-15T08:32:13;22.31;38.92
65478;SHT31;53678;39.642;22.430;2023-04-15T08:34:39;22.11;39.37
65478;SHT31;53678;39.642;22.430;2023-04-15T08:37:05;21.91;39.33
65478;SHT31;53678;39.642;22.430;2023-04-15T08:39:32;22.01;38.94
65478;SHT31;53678;39.642;22.430;2023-04-15T08:42:03;21.25;40.29
65478;SHT31;53678;39.642;22.430;2023-04-15T08:44:34;21.53;40.30
65478;SHT31;53678;39.642;22.430;2023-04-15T08:47:07;21.64;39.39
65478;SHT31;53678;39.642;22.430;2023-04-15T08:49:34;21.98;39.52
65478;SHT31;53678;39.642;22.430;2023-04-15T08:52:05;22.35;38.82
65478;SHT31;53678;39.642;22.430;2023-04-15T08:54:38;22.56;38.75
65478;SHT31;53678;39.642;22.430;2023-04-15T08:57:06;22.51;39.20
65478;SHT31;53678;39.642;22.430;2023-04-15T08:59:32;22.85;38.08
65478;SHT31;53678;39.642;22.430;2023-04-15T09:01:59;22.07;38.96
65478;SHT31;53678;39.642;22.430;2023-04-15T09:04:27;21.87;38.55
65478;SHT31;53678;39.642;22.430;2023-04-15T09:06:52;21.67;38.32
65478;SHT31;53678;39.642;22.430;2023-04-15T09:09:18;21.57;38.70
65478;SHT31;53678;39.642;22.430;2023-04-15T09:11:45;21.80;38.07
65478;SHT31;53678;39.642;22.430;2023-04-15T09:14:14;21.97;37.60
65478;SHT31;53678;39.642;22.430;2023-04-15T09:19:23;21.53;37.61
65478;SHT31;53678;39.642;22.430;2023-04-15T09:21:56;21.21;38.69
65478;SHT31;53678;39.642;22.430;2023-04-15T09:24:24;21.13;38.61
65478;SHT31;53678;39.642;22.430;2023-04-15T09:26:53;20.78;39.70
65478;SHT31;53678;39.642;22.430;2023-04-15T09:29:24;20.99;39.57
65478;SHT31;53678;39.642;22.430;2023-04-15T09:31:52;20.37;40.22
65478;SHT31;53678;39.642;22.430;2023-04-15T09:34:34;20.34;40.14
65478;SHT31;53678;39.642;22.430;2023-04-15T09:37:01;20.27;40.27
65478;SHT31;53678;39.642;22.430;2023-04-15T09:39:27;20.64;40.29
65478;SHT31;53678;39.642;22.430;2023-04-15T09:42:06;21.15;39.54
65478;SHT31;53678;39.642;22.430;2023-04-15T09:44:32;21.66;38.42
65478;SHT31;53678;39.642;22.430;2023-04-15T09:46:58;21.70;39.01
65478;SHT31;53678;39.642;22.430;2023-04-15T09:49:24;21.83;38.56
65478;SHT31;53678;39.642;22.430;2023-04-15T09:51:49;22.05;38.53
65478;SHT31;53678;39.642;22.430;2023-04-15T09:54:19;22.49;37.86
65478;SHT31;53678;39.642;22.430;2023-04-15T09:56:49;22.55;37.96
65478;SHT31;53678;39.642;22.430;2023-04-15T09:59:15;22.47;38.04
65478;SHT31;53678;39.642;22.430;2023-04-15T10:01:43;22.34;38.19
65478;SHT31;53678;39.642;22.430;2023-04-15T10:04:09;22.20;38.15
65478;SHT31;53678;39.642;22.430;2023-04-15T10:06:36;22.35;38.43
65478;SHT31;53678;39.642;22.430;2023-04-15T10:09:01;22.21;39.53
65478;SHT31;53678;39.642;22.430;2023-04-15T10:11:29;21.19;39.79
65478;SHT31;53678;39.642;22.430;2023-04-15T10:13:56;21.53;39.69
65478;SHT31;53678;39.642;22.430;2023-04-15T10:16:26;21.90;39.15
65478;SHT31;53678;39.642;22.430;2023-04-15T10:18:56;21.32;39.76
65478;SHT31;53678;39.642;22.430;2023-04-15T10:21:23;21.83;39.02
65478;SHT31;53678;39.642;22.430;2023-04-15T10:23:49;21.91;37.98
65478;SHT31;53678;39.642;22.430;2023-04-15T10:26:16;21.93;37.65
65478;SHT31;53678;39.642;22.430;2023-04-15T10:28:43;22.00;37.15
65478;SHT31;53678;39.642;22.430;2023-04-15T10:31:12;22.02;37.55
65478;SHT31;53678;39.642;22.430;2023-04-15T10:33:40;22.27;37.62
65478;SHT31;53678;39.642;22.430;2023-04-15T10:36:07;22.35;37.01
65478;SHT31;53678;39.642;22.430;2023-04-15T10:38:42;22.25;37.26
65478;SHT31;53678;39.642;22.430;2023-04-15T10:41:19;22.01;37.78
65478;SHT31;53678;39.642;22.430;2023-04-15T10:44:02;22.38;36.81
65478;SHT31;53678;39.642;22.430;2023-04-15T10:46:41;22.17;35.66
65478;SHT31;53678;39.642;22.430;2023-04-15T10:49:14;22.32;35.54
65478;SHT31;53678;39.642;22.430;2023-04-15T10:51:45;21.94;36.29
65478;SHT31;53678;39.642;22.430;2023-04-15T10:56:52;22.14;35.85
65478;SHT31;53678;39.642;22.430;2023-04-15T11:02:42;22.18;35.59
65478;SHT31;53678;39.642;22.430;2023-04-15T11:05:09;22.05;35.48
65478;SHT31;53678;39.642;22.430;2023-04-15T11:07:52;22.47;35.16
65478;SHT31;53678;39.642;22.430;2023-04-15T11:13:14;22.72;34.85
65478;SHT31;53678;39.642;22.430;2023-04-15T11:15:45;22.77;35.12
65478;SHT31;53678;39.642;22.430;2023-04-15T11:20:48;22.37;35.97
65478;SHT31;53678;39.642;22.430;2023-04-15T11:23:26;22.47;35.88
65478;SHT31;53678;39.642;22.430;2023-04-15T11:25:57;22.35;36.41
65478;SHT31;53678;39.642;22.430;2023-04-15T11:28:30;22.59;35.51
65478;SHT31;53678;39.642;22.430;2023-04-15T11:30:56;22.55;35.21
65478;SHT31;53678;39.642;22.430;2023-04-15T11:33:23;21.77;35.77
65478;SHT31;53678;39.642;22.430;2023-04-15T11:35:52;21.94;36.36
65478;SHT31;53678;39.642;22.430;2023-04-15T11:38:21;22.52;34.73
65478;SHT31;53678;39.642;22.430;2023-04-15T11:40:47;22.44;34.14
65478;SHT31;53678;39.642;22.430;2023-04-15T11:43:17;22.24;34.82
65478;SHT31;53678;39.642;22.430;2023-04-15T11:48:24;22.21;35.26
65478;SHT31;53678;39.642;22.430;2023-04-15T11:50:59;22.63;34.03
65478;SHT31;53678;39.642;22.430;2023-04-15T11:53:36;22.72;33.84
65478;SHT31;53678;39.642;22.430;2023-04-15T11:56:03;23.03;34.03
65478;SHT31;53678;39.642;22.430;2023-04-15T11:58:33;22.90;33.73
65478;SHT31;53678;39.642;22.430;2023-04-15T12:01:00;22.62;33.99
65478;SHT31;53678;39.642;22.430;2023-04-15T12:03:28;22.21;34.52
65478;SHT31;53678;39.642;22.430;2023-04-15T12:06:05;21.74;35.44
65478;SHT31;53678;39.642;22.430;2023-04-15T12:13:55;22.27;34.97
65478;SHT31;53678;39.642;22.430;2023-04-15T12:16:22;22.52;35.25
65478;SHT31;53678;39.642;22.430;2023-04-15T12:18:51;22.37;35.22
65478;SHT31;53678;39.642;22.430;2023-04-15T12:21:19;22.58;35.17
65478;SHT31;53678;39.642;22.430;2023-04-15T12:23:49;22.93;34.75
65478;SHT31;53678;39.642;22.430;2023-04-15T12:26:16;22.20;35.56
65478;SHT31;53678;39.642;22.430;2023-04-15T12:28:42;22.47;35.45
65478;SHT31;53678;39.642;22.430;2023-04-15T12:31:09;22.58;34.70
65478;SHT31;53678;39.642;22.430;2023-04-15T12:33:36;22.63;34.43
65478;SHT31;53678;39.642;22.430;2023-04-15T12:36:03;22.58;35.22
65478;SHT31;53678;39.642;22.430;2023-04-15T12:38:29;22.60;34.96
65478;SHT31;53678;39.642;22.430;2023-04-15T12:40:57;22.35;35.40
65478;SHT31;53678;39.642;22.430;2023-04-15T12:43:23;22.31;35.74
65478;SHT31;53678;39.642;22.430;2023-04-15T12:45:49;22.24;36.04
65478;SHT31;53678;39.642;22.430;2023-04-15T12:48:28;22.08;36.04
65478;SHT31;53678;39.642;22.430;2023-04-15T12:50:57;22.53;34.98
65478;SHT31;53678;39.642;22.430;2023-04-15T12:53:23;22.75;34.68
65478;SHT31;53678;39.642;22.430;2023-04-15T12:55:49;22.95;34.59
65478;SHT31;53678;39.642;22.430;2023-04-15T12:58:17;22.82;34.73
65478;SHT31;53678;39.642;22.430;2023-04-15T13:00:44;22.58;34.69
65478;SHT31;53678;39.642;22.430;2023-04-15T13:03:11;22.66;35.09
65478;SHT31;53678;39.642;22.430;2023-04-15T13:05:38;22.60;35.63
65478;SHT31;53678;39.642;22.430;2023-04-15T13:08:04;22.01;35.93
65478;SHT31;53678;39.642;22.430;2023-04-15T13:10:31;22.31;35.25
65478;SHT31;53678;39.642;22.430;2023-04-15T13:12:57;22.49;35.24
65478;SHT31;53678;39.642;22.430;2023-04-15T13:15:23;22.48;35.65
65478;SHT31;53678;39.642;22.430;2023-04-15T13:17:50;22.20;35.43
65478;SHT31;53678;39.642;22.430;2023-04-15T13:20:17;22.27;35.82
65478;SHT31;53678;39.642;22.430;2023-04-15T13:22:43;22.45;35.43
65478;SHT31;53678;39.642;22.430;2023-04-15T13:25:11;22.58;35.59
65478;SHT31;53678;39.642;22.430;2023-04-15T13:27:37;22.08;36.01
65478;SHT31;53678;39.642;22.430;2023-04-15T13:30:04;21.83;36.58
65478;SHT31;53678;39.642;22.430;2023-04-15T13:32:30;22.01;36.35
65478;SHT31;53678;39.642;22.430;2023-04-15T13:34:57;21.89;36.33
65478;SHT31;53678;39.642;22.430;2023-04-15T13:37:28;21.83;36.63
65478;SHT31;53678;39.642;22.430;2023-04-15T13:39:55;21.93;37.13
65478;SHT31;53678;39.642;22.430;2023-04-15T13:42:22;21.69;37.39
65478;SHT31;53678;39.642;22.430;2023-04-15T13:44:49;21.71;37.51
65478;SHT31;53678;39.642;22.430;2023-04-15T13:47:36;21.86;36.83
65478;SHT31;53678;39.642;22.430;2023-04-15T13:50:02;22.08;36.53
65478;SHT31;53678;39.642;22.430;2023-04-15T13:52:28;22.02;36.65
65478;SHT31;53678;39.642;22.430;2023-04-15T13:54:53;22.14;36.69
65478;SHT31;53678;39.642;22.430;2023-04-15T13:57:19;22.28;36.09
65478;SHT31;53678;39.642;22.430;2023-04-15T13:59:45;22.07;36.89
65478;SHT31;53678;39.642;22.430;2023-04-15T14:02:11;21.96;37.43
65478;SHT31;53678;39.642;22.430;2023-04-15T14:04:38;21.81;37.15
65478;SHT31;53678;39.642;22.430;2023-04-15T14:07:04;21.53;37.89
65478;SHT31;53678;39.642;22.430;2023-04-15T14:09:31;21.11;38.49
65478;SHT31;53678;39.642;22.430;2023-04-15T14:11:57;21.47;38.34
65478;SHT31;53678;39.642;22.430;2023-04-15T14:14:24;21.31;37.39
65478;SHT31;53678;39.642;22.430;2023-04-15T14:16:51;21.36;37.20
65478;SHT31;53678;39.642;22.430;2023-04-15T14:19:18;21.67;37.13
65478;SHT31;53678;39.642;22.430;2023-04-15T14:21:44;21.77;37.14
65478;SHT31;53678;39.642;22.430;2023-04-15T14:24:10;21.98;36.89
65478;SHT31;53678;39.642;22.430;2023-04-15T14:26:36;21.94;36.85
65478;SHT31;53678;39.642;22.430;2023-04-15T14:29:02;22.10;36.67
65478;SHT31;53678;39.642;22.430;2023-04-15T14:31:30;21.86;36.71
65478;SHT31;53678;39.642;22.430;2023-04-15T14:33:56;21.96;36.89
65478;SHT31;53678;39.642;22.430;2023-04-15T14:36:21;21.86;36.92
65478;SHT31;53678;39.642;22.430;2023-04-15T14:38:47;21.89;37.33
65478;SHT31;53678;39.642;22.430;2023-04-15T14:41:14;21.91;37.46
65478;SHT31;53678;39.642;22.430;2023-04-15T14:43:40;21.80;36.86
65478;SHT31;53678;39.642;22.430;2023-04-15T14:46:06;21.69;37.28
65478;SHT31;53678;39.642;22.430;2023-04-15T14:48:33;21.71;37.31
65478;SHT31;53678;39.642;22.430;2023-04-15T14:51:00;21.29;38.18
65478;SHT31;53678;39.642;22.430;2023-04-15T14:53:27;21.02;38.52
65478;SHT31;53678;39.642;22.430;2023-04-15T14:55:53;21.19;38.24
65478;SHT31;53678;39.642;22.430;2023-04-15T14:58:19;21.36;37.98
65478;SHT31;53678;39.642;22.430;2023-04-15T15:00:45;21.43;37.89
65478;SHT31;53678;39.642;22.430;2023-04-15T15:03:12;21.45;37.52
65478;SHT31;53678;39.642;22.430;2023-04-15T15:05:44;21.38;37.59
65478;SHT31;53678;39.642;22.430;2023-04-15T15:08:12;21.57;37.86
65478;SHT31;53678;39.642;22.430;2023-04-15T15:10:41;21.43;37.93
65478;SHT31;53678;39.642;22.430;2023-04-15T15:13:08;21.21;38.52
65478;SHT31;53678;39.642;22.430;2023-04-15T15:15:37;20.90;38.40
65478;SHT31;53678;39.642;22.430;2023-04-15T15:18:06;21.15;38.07
65478;SHT31;53678;39.642;22.430;2023-04-15T15:20:32;21.19;37.86
65478;SHT31;53678;39.642;22.430;2023-04-15T15:23:00;21.21;38.00
65478;SHT31;53678;39.642;22.430;2023-04-15T15:25:27;21.49;37.55
65478;SHT31;53678;39.642;22.430;2023-04-15T15:27:54;21.16;37.82
65478;SHT31;53678;39.642;22.430;2023-04-15T15:30:20;21.09;38.07
65478;SHT31;53678;39.642;22.430;2023-04-15T15:32:46;21.18;38.29
65478;SHT31;53678;39.642;22.430;2023-04-15T15:35:13;21.13;37.77
65478;SHT31;53678;39.642;22.430;2023-04-15T15:37:40;21.05;37.86